createdAt,value
2019-04-06T00:02:16.617Z,2.20
2019-04-06T00:04:49.035Z,2.20
2019-04-06T00:07:21.610Z,2.10
2019-04-06T00:09:54.617Z,2.10
2019-04-06T00:12:26.957Z,2.00
2019-04-06T00:14:59.107Z,1.90
2019-04-06T00:17:31.781Z,1.80
2019-04-06T00:20:04.241Z,1.80
2019-04-06T00:22:36.529Z,1.70
2019-04-06T00:25:09.292Z,1.60
2019-04-06T00:27:41.882Z,1.50
2019-04-06T00:30:14.422Z,1.40
2019-04-06T00:32:50.626Z,1.40
2019-04-06T00:35:23.013Z,1.30
2019-04-06T00:37:55.569Z,1.20
2019-04-06T00:40:28.154Z,1.20
2019-04-06T00:43:00.658Z,1.10
2019-04-06T00:45:33.914Z,1.10
2019-04-06T00:48:06.272Z,1.00
2019-04-06T00:50:38.829Z,1.00
2019-04-06T00:53:11.169Z,0.90
2019-04-06T00:55:54.839Z,0.90
2019-04-06T00:58:17.657Z,0.90
2019-04-06T01:00:50.200Z,0.80
2019-04-06T01:03:24.341Z,0.80
2019-04-06T01:05:57.222Z,0.80
2019-04-06T01:08:29.722Z,0.80
2019-04-06T01:11:02.350Z,0.80
2019-04-06T01:13:34.929Z,0.70
2019-04-06T01:16:07.506Z,0.70
2019-04-06T01:18:40.034Z,0.70
2019-04-06T01:21:12.431Z,0.70
2019-04-06T01:23:45.026Z,0.70
2019-04-06T01:26:17.368Z,0.70
2019-04-06T01:28:50.008Z,0.70
2019-04-06T01:31:22.331Z,0.70
2019-04-06T01:33:54.712Z,0.70
2019-04-06T01:36:27.216Z,0.70
2019-04-06T01:38:59.993Z,0.70
2019-04-06T01:41:32.568Z,0.70
2019-04-06T01:44:05.354Z,0.70
2019-04-06T01:46:38.133Z,0.70
2019-04-06T01:49:10.536Z,0.70
2019-04-06T01:51:43.081Z,0.70
2019-04-06T01:54:15.727Z,0.70
2019-04-06T01:56:49.037Z,0.70
2019-04-06T01:59:21.533Z,0.70
2019-04-06T02:02:00.522Z,0.70
2019-04-06T02:04:33.238Z,0.70
2019-04-06T02:07:05.619Z,0.70
2019-04-06T02:09:38.030Z,0.70
2019-04-06T02:12:10.464Z,0.70
2019-04-06T02:14:42.708Z,0.70
2019-04-06T02:17:23.949Z,0.70
2019-04-06T02:19:56.414Z,0.70
2019-04-06T02:22:30.086Z,0.70
2019-04-06T02:25:02.896Z,0.70
2019-04-06T02:27:35.297Z,0.70
2019-04-06T02:30:35.258Z,0.80
2019-04-06T02:33:35.018Z,0.70
2019-04-06T02:36:35.071Z,0.70
2019-04-06T02:39:14.841Z,0.70
2019-04-06T02:42:05.349Z,0.70
2019-04-06T02:44:37.694Z,0.70
2019-04-06T02:47:10.187Z,0.70
2019-04-06T02:49:42.422Z,0.70
2019-04-06T02:52:15.051Z,0.70
2019-04-06T02:54:47.720Z,0.70
2019-04-06T02:57:20.294Z,0.70
2019-04-06T02:59:52.461Z,0.70
2019-04-06T03:02:24.900Z,0.70
2019-04-06T03:04:57.524Z,0.70
2019-04-06T03:07:30.116Z,0.70
2019-04-06T03:10:03.903Z,0.70
2019-04-06T03:12:36.534Z,0.70
2019-04-06T03:15:09.198Z,0.60
2019-04-06T03:17:41.506Z,0.70
2019-04-06T03:20:14.386Z,0.70
2019-04-06T03:22:46.832Z,0.70
2019-04-06T03:25:19.514Z,0.70
2019-04-06T03:27:51.774Z,0.70
2019-04-06T03:30:24.335Z,0.70
2019-04-06T03:32:57.068Z,0.60
2019-04-06T03:35:29.979Z,0.60
2019-04-06T03:38:02.862Z,0.70
2019-04-06T03:40:35.477Z,0.70
2019-04-06T03:43:07.876Z,0.60
2019-04-06T03:45:40.341Z,0.60
2019-04-06T03:48:13.073Z,0.60
2019-04-06T03:50:45.601Z,0.60
2019-04-06T03:53:18.277Z,0.60
2019-04-06T03:55:50.474Z,0.60
2019-04-06T03:58:23.071Z,0.60
2019-04-06T04:00:55.570Z,0.70
2019-04-06T04:03:27.953Z,0.70
2019-04-06T04:06:00.457Z,0.70
2019-04-06T04:08:32.938Z,0.70
2019-04-06T04:11:05.602Z,0.70
2019-04-06T04:13:38.088Z,0.70
2019-04-06T04:16:10.629Z,0.70
2019-04-06T04:18:43.206Z,0.70
2019-04-06T04:21:15.634Z,0.70
2019-04-06T04:23:48.087Z,0.70
2019-04-06T04:26:20.418Z,0.70
2019-04-06T04:28:53.315Z,0.70
2019-04-06T04:31:25.912Z,0.70
2019-04-06T04:33:58.354Z,0.70
2019-04-06T04:36:31.219Z,0.70
2019-04-06T04:39:04.927Z,0.70
2019-04-06T04:41:39.367Z,0.80
2019-04-06T04:44:11.273Z,0.70
2019-04-06T04:46:43.895Z,0.80
2019-04-06T04:49:16.212Z,0.80
2019-04-06T04:51:48.935Z,0.80
2019-04-06T04:54:21.073Z,0.70
2019-04-06T04:56:53.750Z,0.80
2019-04-06T04:59:26.053Z,0.70
2019-04-06T05:01:58.459Z,0.80
2019-04-06T05:04:30.774Z,0.70
2019-04-06T05:07:03.255Z,0.70
2019-04-06T05:09:35.753Z,0.70
2019-04-06T05:12:08.638Z,0.80
2019-04-06T05:15:01.799Z,0.80
2019-04-06T05:17:34.466Z,0.80
2019-04-06T05:20:07.588Z,0.80
2019-04-06T05:22:40.555Z,0.80
2019-04-06T05:25:13.264Z,0.80
2019-04-06T05:27:51.726Z,0.80
2019-04-06T05:30:20.002Z,0.80
2019-04-06T05:32:52.599Z,0.80
2019-04-06T05:35:25.140Z,0.80
2019-04-06T05:37:57.541Z,0.80
2019-04-06T05:40:29.905Z,0.80
2019-04-06T05:43:02.377Z,0.90
2019-04-06T05:45:34.697Z,0.90
2019-04-06T05:48:07.234Z,0.90
2019-04-06T05:50:39.717Z,0.80
2019-04-06T05:53:12.237Z,0.80
2019-04-06T05:55:44.590Z,0.80
2019-04-06T05:58:17.391Z,0.80
2019-04-06T06:00:49.552Z,0.80
2019-04-06T06:03:21.985Z,0.90
2019-04-06T06:05:54.405Z,0.80
2019-04-06T06:08:26.762Z,0.90
2019-04-06T06:10:59.274Z,0.80
2019-04-06T06:13:31.790Z,0.80
2019-04-06T06:16:04.282Z,0.80
2019-04-06T06:18:36.823Z,0.90
2019-04-06T06:21:09.314Z,0.90
2019-04-06T06:23:41.789Z,1.00
2019-04-06T06:26:14.636Z,0.90
2019-04-06T06:28:47.557Z,0.90
2019-04-06T06:31:19.861Z,0.90
2019-04-06T06:33:52.311Z,0.90
2019-04-06T06:36:24.729Z,0.90
2019-04-06T06:38:57.016Z,1.00
2019-04-06T06:41:29.970Z,1.00
2019-04-06T06:44:02.921Z,1.00
2019-04-06T06:46:35.554Z,1.10
2019-04-06T06:49:08.130Z,1.10
2019-04-06T06:51:40.680Z,1.10
2019-04-06T06:54:13.433Z,1.10
2019-04-06T06:56:46.073Z,1.10
2019-04-06T06:59:18.804Z,1.10
2019-04-06T07:01:51.430Z,1.10
2019-04-06T07:04:23.885Z,1.10
2019-04-06T07:06:56.370Z,1.10
2019-04-06T07:09:28.609Z,1.10
2019-04-06T07:12:00.981Z,1.10
2019-04-06T07:14:33.549Z,1.10
2019-04-06T07:17:05.969Z,1.10
2019-04-06T07:19:38.698Z,1.20
2019-04-06T07:22:11.015Z,1.20
2019-04-06T07:24:43.445Z,1.10
2019-04-06T07:27:15.855Z,1.10
2019-04-06T07:29:48.562Z,1.10
2019-04-06T07:32:21.025Z,1.20
2019-04-06T07:34:53.197Z,1.20
2019-04-06T07:37:25.889Z,1.20
2019-04-06T07:39:58.441Z,1.20
2019-04-06T07:42:31.015Z,1.20
2019-04-06T07:45:03.363Z,1.20
2019-04-06T07:47:36.032Z,1.20
2019-04-06T07:50:09.950Z,1.20
2019-04-06T07:52:42.514Z,1.20
2019-04-06T07:55:14.693Z,1.20
2019-04-06T07:57:46.966Z,1.20
2019-04-06T08:00:19.929Z,1.10
2019-04-06T08:02:52.133Z,1.10
2019-04-06T08:05:24.477Z,1.10
2019-04-06T08:07:57.290Z,1.10
2019-04-06T08:10:30.025Z,1.10
2019-04-06T08:13:02.293Z,1.10
2019-04-06T08:15:34.762Z,1.20
2019-04-06T08:18:06.895Z,1.20
2019-04-06T08:20:39.121Z,1.10
2019-04-06T08:23:11.631Z,1.20
2019-04-06T08:25:44.122Z,1.20
2019-04-06T08:28:16.958Z,1.20
2019-04-06T08:30:51.686Z,1.20
2019-04-06T08:33:24.278Z,1.20
2019-04-06T08:35:56.690Z,1.10
2019-04-06T08:38:29.332Z,1.10
2019-04-06T08:41:01.889Z,1.10
2019-04-06T08:43:34.230Z,1.20
2019-04-06T08:46:06.705Z,1.10
2019-04-06T08:48:39.313Z,1.20
2019-04-06T08:51:11.877Z,1.20
2019-04-06T08:53:44.319Z,1.20
2019-04-06T08:56:16.806Z,1.20
2019-04-06T08:58:49.530Z,1.20
2019-04-06T09:01:21.886Z,1.20
2019-04-06T09:03:54.692Z,1.20
2019-04-06T09:06:27.463Z,1.20
2019-04-06T09:09:00.057Z,1.20
2019-04-06T09:11:32.275Z,1.20
2019-04-06T09:14:04.705Z,1.20
2019-04-06T09:16:37.309Z,1.20
2019-04-06T09:19:10.147Z,1.20
2019-04-06T09:21:42.674Z,1.10
2019-04-06T09:24:15.041Z,1.20
2019-04-06T09:26:48.220Z,1.20
2019-04-06T09:29:24.122Z,1.20
2019-04-06T09:31:55.799Z,1.20
2019-04-06T09:34:30.679Z,1.20
2019-04-06T09:37:02.387Z,1.30
2019-04-06T09:39:34.634Z,1.20
2019-04-06T09:42:07.198Z,1.20
2019-04-06T09:45:00.355Z,1.30
2019-04-06T09:47:42.902Z,1.30
2019-04-06T09:50:32.866Z,1.20
2019-04-06T09:53:20.219Z,1.30
2019-04-06T09:56:08.186Z,1.30
2019-04-06T09:58:59.262Z,1.20
2019-04-06T10:01:48.481Z,1.30
2019-04-06T10:04:57.641Z,1.20
2019-04-06T10:07:43.466Z,1.20
2019-04-06T10:10:36.209Z,1.10
2019-04-06T10:13:25.465Z,1.10
2019-04-06T10:16:07.262Z,1.10
2019-04-06T10:18:58.166Z,1.20
2019-04-06T10:21:47.741Z,1.20
2019-04-06T10:24:38.658Z,1.20
2019-04-06T10:27:35.119Z,1.30
2019-04-06T10:30:29.475Z,1.30
2019-04-06T10:33:10.455Z,1.20
2019-04-06T10:36:07.193Z,1.20
2019-04-06T10:38:55.529Z,1.20
2019-04-06T10:41:45.321Z,1.20
2019-04-06T10:44:42.065Z,1.20
2019-04-06T10:47:48.037Z,1.20
2019-04-06T10:50:47.542Z,1.30
2019-04-06T10:53:33.425Z,1.30
2019-04-06T10:56:20.751Z,1.30
2019-04-06T10:59:17.495Z,1.30
2019-04-06T11:01:58.917Z,1.40
2019-04-06T11:04:53.166Z,1.50
2019-04-06T11:07:52.735Z,1.50
2019-04-06T11:10:53.314Z,1.60
2019-04-06T11:13:45.570Z,1.50
2019-04-06T11:16:32.440Z,1.50
2019-04-06T11:19:29.510Z,1.60
2019-04-06T11:22:35.537Z,1.60
2019-04-06T11:25:26.065Z,1.70
2019-04-06T11:28:25.708Z,1.70
2019-04-06T11:31:28.836Z,1.70
2019-04-06T11:34:28.795Z,1.70
2019-04-06T11:37:25.540Z,1.70
2019-04-06T11:40:14.509Z,1.90
2019-04-06T11:43:04.620Z,1.90
2019-04-06T11:45:51.602Z,2.00
2019-04-06T11:48:40.976Z,2.00
2019-04-06T11:51:30.287Z,2.10
2019-04-06T11:54:19.306Z,2.30
2019-04-06T11:56:57.604Z,2.30
2019-04-06T11:59:51.393Z,2.40
2019-04-06T12:02:40.870Z,2.40
2019-04-06T12:05:40.598Z,2.40
2019-04-06T12:08:37.123Z,2.50
2019-04-06T12:11:17.822Z,2.50
2019-04-06T12:13:59.733Z,2.50
2019-04-06T12:16:56.529Z,2.50
2019-04-06T12:19:35.771Z,2.60
2019-04-06T12:22:18.507Z,2.70
2019-04-06T12:25:12.479Z,2.80
2019-04-06T12:28:06.788Z,2.80
2019-04-06T12:31:16.387Z,2.90
2019-04-06T12:34:10.477Z,2.90
2019-04-06T12:36:49.497Z,2.90
2019-04-06T12:39:53.449Z,2.90
2019-04-06T12:42:52.206Z,3.00
2019-04-06T12:45:51.716Z,3.00
2019-04-06T12:48:41.448Z,3.10
2019-04-06T12:51:41.617Z,3.30
2019-04-06T12:54:26.124Z,3.30
2019-04-06T12:57:11.185Z,3.30
2019-04-06T12:59:51.353Z,3.40
2019-04-06T13:02:57.591Z,3.40
2019-04-06T13:05:36.899Z,3.40
2019-04-06T13:08:27.019Z,3.40
2019-04-06T13:11:19.907Z,3.40
2019-04-06T13:14:26.230Z,3.50
2019-04-06T13:17:22.531Z,3.60
2019-04-06T13:20:16.253Z,3.60
2019-04-06T13:23:06.997Z,3.60
2019-04-06T13:26:06.411Z,3.60
2019-04-06T13:28:49.251Z,3.60
2019-04-06T13:31:52.005Z,3.50
2019-04-06T13:34:43.046Z,3.60
2019-04-06T13:37:31.798Z,3.60
2019-04-06T13:40:22.489Z,3.60
2019-04-06T13:43:05.318Z,3.70
2019-04-06T13:45:50.281Z,3.70
2019-04-06T13:48:44.549Z,3.80
2019-04-06T13:51:30.894Z,3.80
2019-04-06T13:54:22.703Z,3.90
2019-04-06T13:57:12.712Z,3.90
2019-04-06T14:00:15.371Z,4.00
2019-04-06T14:02:57.992Z,4.10
2019-04-06T14:05:58.619Z,4.30
2019-04-06T14:08:47.885Z,4.40
2019-04-06T14:11:44.630Z,4.60
2019-04-06T14:14:38.098Z,4.70
2019-04-06T14:17:29.042Z,4.80
2019-04-06T14:20:15.089Z,4.90
2019-04-06T14:23:04.078Z,4.90
2019-04-06T14:25:53.849Z,4.90
2019-04-06T14:28:35.018Z,4.80
2019-04-06T14:31:29.402Z,4.80
2019-04-06T14:34:20.248Z,4.90
2019-04-06T14:37:16.753Z,4.90
2019-04-06T14:40:09.336Z,5.10
2019-04-06T14:43:00.511Z,5.40
2019-04-06T14:45:57.746Z,5.50
2019-04-06T14:48:37.841Z,5.70
2019-04-06T14:51:37.685Z,6.00
2019-04-06T14:54:19.638Z,6.30
2019-04-06T14:57:01.644Z,6.40
2019-04-06T14:59:57.353Z,6.30
2019-04-06T15:02:39.146Z,6.30
2019-04-06T15:05:48.183Z,6.50
2019-04-06T15:08:53.863Z,6.40
2019-04-06T15:11:45.027Z,6.50
2019-04-06T15:14:38.721Z,6.40
2019-04-06T15:17:20.889Z,6.30
2019-04-06T15:20:11.725Z,6.40
2019-04-06T15:22:53.214Z,6.40
2019-04-06T15:25:41.185Z,6.60
2019-04-06T15:28:35.437Z,6.60
2019-04-06T15:31:29.734Z,6.50
2019-04-06T15:34:23.498Z,6.30
2019-04-06T15:37:14.401Z,6.00
2019-04-06T15:40:03.472Z,5.80
2019-04-06T15:42:41.987Z,5.70
2019-04-06T15:45:36.922Z,5.90
2019-04-06T15:48:36.572Z,6.00
2019-04-06T15:51:36.523Z,6.20
2019-04-06T15:54:34.113Z,6.50
2019-04-06T15:57:25.196Z,6.70
2019-04-06T16:00:13.219Z,6.70
2019-04-06T16:02:53.899Z,6.60
2019-04-06T16:05:38.958Z,6.50
2019-04-06T16:08:17.801Z,6.40
2019-04-06T16:11:15.222Z,6.20
2019-04-06T16:13:57.866Z,6.20
2019-04-06T16:16:41.106Z,6.20
2019-04-06T16:19:20.333Z,6.30
2019-04-06T16:21:58.740Z,6.30
2019-04-06T16:24:51.206Z,6.30
2019-04-06T16:27:44.898Z,6.20
2019-04-06T16:30:33.805Z,6.10
2019-04-06T16:33:18.681Z,6.00
2019-04-06T16:35:59.238Z,6.20
2019-04-06T16:38:50.661Z,6.20
2019-04-06T16:41:44.450Z,6.50
2019-04-06T16:44:31.442Z,6.50
2019-04-06T16:47:22.262Z,6.90
2019-04-06T16:50:13.359Z,7.10
2019-04-06T16:53:16.068Z,7.40
2019-04-06T16:56:05.739Z,8.10
2019-04-06T16:58:56.443Z,8.70
2019-04-06T17:01:53.461Z,9.00
2019-04-06T17:04:36.206Z,9.50
2019-04-06T17:07:26.314Z,9.80
2019-04-06T17:10:08.839Z,9.50
2019-04-06T17:12:59.896Z,9.30
2019-04-06T17:15:55.997Z,9.00
2019-04-06T17:18:46.047Z,8.30
2019-04-06T17:21:36.073Z,8.20
2019-04-06T17:24:22.307Z,8.00
2019-04-06T17:27:14.243Z,7.80
2019-04-06T17:29:56.449Z,7.70
2019-04-06T17:32:50.367Z,7.70
2019-04-06T17:35:44.739Z,7.70
2019-04-06T17:38:42.931Z,7.60
2019-04-06T17:41:48.855Z,7.60
2019-04-06T17:44:39.617Z,7.70
2019-04-06T17:47:26.686Z,7.70
2019-04-06T17:50:16.566Z,7.80
2019-04-06T17:53:01.362Z,8.00
2019-04-06T17:55:58.889Z,8.20
2019-04-06T17:58:47.750Z,8.40
2019-04-06T18:01:38.718Z,8.70
2019-04-06T18:04:37.749Z,8.70
2019-04-06T18:07:31.254Z,8.60
2019-04-06T18:10:10.450Z,8.50
2019-04-06T18:12:48.982Z,8.30
2019-04-06T18:15:21.761Z,8.40
2019-04-06T18:17:54.150Z,8.80
2019-04-06T18:20:26.449Z,9.10
2019-04-06T18:22:59.227Z,9.20
2019-04-06T18:25:31.738Z,9.20
2019-04-06T18:28:04.051Z,8.80
2019-04-06T18:30:36.589Z,8.70
2019-04-06T18:33:16.194Z,9.00
2019-04-06T18:35:48.921Z,10.10
2019-04-06T18:38:26.869Z,10.60
2019-04-06T18:40:59.364Z,10.80
2019-04-06T18:43:31.989Z,10.70
2019-04-06T18:46:04.156Z,10.40
2019-04-06T18:48:37.226Z,10.30
2019-04-06T18:51:10.046Z,10.70
2019-04-06T18:53:42.781Z,10.80
2019-04-06T18:56:15.189Z,11.10
2019-04-06T18:58:47.494Z,11.40
2019-04-06T19:01:20.316Z,11.60
2019-04-06T19:03:52.915Z,11.80
2019-04-06T19:06:25.409Z,11.60
2019-04-06T19:08:57.961Z,11.50
2019-04-06T19:11:30.639Z,11.40
2019-04-06T19:14:03.158Z,11.70
2019-04-06T19:16:35.705Z,11.80
2019-04-06T19:19:08.169Z,12.20
2019-04-06T19:21:40.930Z,12.40
2019-04-06T19:24:13.894Z,12.40
2019-04-06T19:26:46.689Z,11.90
2019-04-06T19:29:19.104Z,12.00
2019-04-06T19:31:51.795Z,12.20
2019-04-06T19:34:24.017Z,12.30
2019-04-06T19:36:56.683Z,12.60
2019-04-06T19:39:29.181Z,12.40
2019-04-06T19:42:01.895Z,12.40
2019-04-06T19:44:35.006Z,12.40
2019-04-06T19:47:07.637Z,12.20
2019-04-06T19:49:40.110Z,12.20
2019-04-06T19:52:12.407Z,12.10
2019-04-06T19:54:44.909Z,12.30
2019-04-06T19:57:17.513Z,12.30
2019-04-06T19:59:50.351Z,12.40
2019-04-06T20:02:23.217Z,12.40
2019-04-06T20:04:56.364Z,12.20
2019-04-06T20:07:28.785Z,12.30
2019-04-06T20:10:01.278Z,12.30
2019-04-06T20:12:34.405Z,12.30
2019-04-06T20:15:09.098Z,12.10
2019-04-06T20:17:41.606Z,11.90
2019-04-06T20:20:14.287Z,12.10
2019-04-06T20:22:46.942Z,12.00
2019-04-06T20:25:19.369Z,12.00
2019-04-06T20:27:52.140Z,11.80
2019-04-06T20:30:24.476Z,12.00
2019-04-06T20:32:56.881Z,12.30
2019-04-06T20:35:29.617Z,12.70
2019-04-06T20:38:02.402Z,12.90
2019-04-06T20:40:34.786Z,12.80
2019-04-06T20:43:07.257Z,12.90
2019-04-06T20:45:40.073Z,12.80
2019-04-06T20:48:12.982Z,12.80
2019-04-06T20:50:45.509Z,12.70
2019-04-06T20:53:18.857Z,12.70
2019-04-06T20:55:51.689Z,12.60
2019-04-06T20:58:24.030Z,12.70
2019-04-06T21:00:56.217Z,12.80
2019-04-06T21:03:28.900Z,12.80
2019-04-06T21:06:05.189Z,12.90
2019-04-06T21:08:38.078Z,12.90
2019-04-06T21:11:10.578Z,12.90
2019-04-06T21:13:43.524Z,12.80
2019-04-06T21:16:16.839Z,12.90
2019-04-06T21:18:49.642Z,12.80
2019-04-06T21:21:22.087Z,13.00
2019-04-06T21:23:54.461Z,13.10
2019-04-06T21:26:26.965Z,13.20
2019-04-06T21:28:59.853Z,13.10
2019-04-06T21:31:32.425Z,12.90
2019-04-06T21:34:10.398Z,12.80
2019-04-06T21:36:38.526Z,12.60
2019-04-06T21:39:11.240Z,12.40
2019-04-06T21:41:43.581Z,12.40
2019-04-06T21:44:15.929Z,12.50
2019-04-06T21:46:48.386Z,12.40
2019-04-06T21:49:21.635Z,12.40
2019-04-06T21:51:54.393Z,12.40
2019-04-06T21:54:26.615Z,12.50
2019-04-06T21:56:59.367Z,12.60
2019-04-06T21:59:32.327Z,12.60
2019-04-06T22:02:04.718Z,12.60
2019-04-06T22:04:37.482Z,12.50
2019-04-06T22:07:10.782Z,12.40
2019-04-06T22:09:44.074Z,12.30
2019-04-06T22:12:16.534Z,12.00
2019-04-06T22:14:49.046Z,11.90
2019-04-06T22:17:21.522Z,11.90
2019-04-06T22:19:54.163Z,11.80
2019-04-06T22:22:26.983Z,11.80
2019-04-06T22:24:59.627Z,11.80
2019-04-06T22:27:32.100Z,11.90
2019-04-06T22:30:05.885Z,11.90
2019-04-06T22:32:38.205Z,11.80
2019-04-06T22:35:11.370Z,11.70
2019-04-06T22:37:44.973Z,11.50
2019-04-06T22:40:18.125Z,11.30
2019-04-06T22:42:50.638Z,11.10
2019-04-06T22:45:24.190Z,10.90
2019-04-06T22:47:57.537Z,10.70
2019-04-06T22:50:30.332Z,10.50
2019-04-06T22:53:02.790Z,10.30
2019-04-06T22:55:35.241Z,10.00
2019-04-06T22:58:08.182Z,9.70
2019-04-06T23:01:02.490Z,9.30
2019-04-06T23:03:52.514Z,8.90
2019-04-06T23:06:49.834Z,8.50
2019-04-06T23:09:22.483Z,8.20
2019-04-06T23:11:54.781Z,7.90
2019-04-06T23:14:27.356Z,7.50
2019-04-06T23:16:59.925Z,7.20
2019-04-06T23:19:32.664Z,6.80
2019-04-06T23:22:05.769Z,6.60
2019-04-06T23:24:39.721Z,6.30
2019-04-06T23:27:12.406Z,6.10
2019-04-06T23:29:44.673Z,5.90
2019-04-06T23:32:16.981Z,5.70
2019-04-06T23:34:58.866Z,5.50
2019-04-06T23:37:23.354Z,5.40
2019-04-06T23:39:56.284Z,5.30
2019-04-06T23:42:28.815Z,5.10
2019-04-06T23:45:01.351Z,4.80
2019-04-06T23:47:34.099Z,4.70
2019-04-06T23:50:06.756Z,4.50
2019-04-06T23:52:39.902Z,4.40
2019-04-06T23:55:12.823Z,4.30
2019-04-06T23:57:48.407Z,4.20
